Time;durP1;ratioP1;P1;durP2;ratioP2;P2;SDS_P1;SDS_P2;PMS_P1;PMS_P2;Temp;Humidity;BMP_temperature;BMP_pressure;BME280_temperature;BME280_humidity;BME280_pressure;Samples;Min_cycle;Max_cycle;Signal;HPM_P1;HPM_P2
2023/03/23 00:02:04;;;;;;;59.50;34.60;;;;;;;8.33;78.93;99394.91;103490;1255;108688;-73
2023/03/23 00:04:31;;;;;;;53.00;33.90;;;;;;;8.33;78.90;99391.97;103417;1256;97669;-72
2023/03/23 00:06:55;;;;;;;;;;;;;;;8.34;78.95;99391.09;103366;1250;138307;-72
2023/03/23 00:09:24;;;;;;;57.00;34.70;;;;;;;8.33;79.02;99383.30;103498;1250;107035;-73
2023/03/23 00:11:52;;;;;;;50.90;33.60;;;;;;;8.33;78.93;99384.19;103457;1247;139377;-73
2023/03/23 00:14:22;;;;;;;52.90;34.40;;;;;;;8.33;79.05;99385.04;103478;1251;108773;-72
2023/03/23 00:16:50;;;;;;;52.90;33.20;;;;;;;8.32;79.02;99383.16;103522;1250;97771;-72
2023/03/23 00:19:19;;;;;;;55.90;34.50;;;;;;;8.33;78.92;99384.17;103269;1251;138181;-72
2023/03/23 00:21:46;;;;;;;51.70;32.80;;;;;;;8.32;79.02;99382.84;103424;1254;107893;-73
2023/03/23 00:24:15;;;;;;;53.20;34.60;;;;;;;8.31;78.96;99381.46;103316;1255;139734;-72
2023/03/23 00:26:43;;;;;;;51.80;34.30;;;;;;;8.31;79.04;99375.09;103499;1252;107820;-72
2023/03/23 00:29:14;;;;;;;52.20;33.30;;;;;;;8.30;79.18;99378.23;103530;1253;98264;-73
2023/03/23 00:31:40;;;;;;;47.90;32.20;;;;;;;8.29;79.14;99374.96;103390;1250;138147;-73
2023/03/23 00:34:07;;;;;;;48.20;32.00;;;;;;;8.29;79.34;99378.96;103388;1255;107727;-73
2023/03/23 00:36:42;;;;;;;49.80;32.80;;;;;;;8.27;79.41;99372.45;103340;1250;138436;-73
2023/03/23 00:39:12;;;;;;;51.60;31.70;;;;;;;8.27;79.33;99370.55;103333;1253;107748;-72
2023/03/23 00:41:39;;;;;;;49.90;32.50;;;;;;;8.27;79.57;99375.25;103337;1250;138601;-71
2023/03/23 00:44:08;;;;;;;50.90;31.90;;;;;;;8.26;79.57;99371.10;103460;1253;110834;-72
2023/03/23 00:46:34;;;;;;;50.80;33.10;;;;;;;8.25;79.53;99363.86;103402;1254;109053;-72
2023/03/23 00:49:00;;;;;;;52.20;32.20;;;;;;;8.24;79.64;99367.16;103483;1251;138494;-72
2023/03/23 00:51:27;;;;;;;50.40;31.40;;;;;;;8.25;79.63;99362.13;103485;1257;108640;-72
2023/03/23 00:53:53;;;;;;;49.00;31.40;;;;;;;8.25;79.59;99365.23;103328;1256;138665;-72
2023/03/23 00:56:20;;;;;;;50.30;31.40;;;;;;;8.26;79.63;99361.23;103520;1250;112503;-72
2023/03/23 00:58:45;;;;;;;48.60;31.80;;;;;;;8.26;79.54;99360.71;103435;1250;107826;-72
2023/03/23 01:01:14;;;;;;;50.20;31.50;;;;;;;8.27;79.52;99361.02;103360;1253;138843;-72
2023/03/23 01:03:40;;;;;;;50.50;32.40;;;;;;;8.28;79.41;99357.17;103499;1253;108561;-74
2023/03/23 01:06:12;;;;;;;50.20;32.60;;;;;;;8.29;79.34;99352.66;103348;1253;138589;-73
2023/03/23 01:08:45;;;;;;;50.70;31.40;;;;;;;8.30;79.39;99353.81;103607;1253;111785;-73
2023/03/23 01:11:13;;;;;;;50.10;32.10;;;;;;;8.30;79.35;99350.49;101230;1253;2990258;-73
2023/03/23 01:13:43;;;;;;;46.90;31.40;;;;;;;8.33;79.30;99351.80;103379;1250;138486;-73
2023/03/23 01:16:11;;;;;;;57.00;33.40;;;;;;;8.34;79.29;99345.90;103424;1251;108075;-72
2023/03/23 01:18:37;;;;;;;46.70;30.60;;;;;;;8.36;79.22;99349.45;103318;1253;138861;-73
2023/03/23 01:21:07;;;;;;;46.30;29.50;;;;;;;8.37;79.09;99354.11;103464;1250;111003;-73
2023/03/23 01:23:37;;;;;;;45.90;29.90;;;;;;;8.37;79.18;99350.59;103359;1253;138397;-71
2023/03/23 01:26:08;;;;;;;47.40;30.20;;;;;;;8.40;79.21;99354.66;103491;1251;97857;-72
2023/03/23 01:28:34;;;;;;;43.40;29.90;;;;;;;8.45;79.26;99354.31;103423;1253;108407;-73
2023/03/23 01:31:03;;;;;;;43.50;28.90;;;;;;;8.50;79.23;99358.63;103302;1250;139827;-72
2023/03/23 01:33:36;;;;;;;;;;;;;;;8.54;79.38;99355.19;103501;1250;111347;-72
2023/03/23 01:36:06;;;;;;;43.40;29.60;;;;;;;8.57;79.23;99356.80;103341;1253;124738;-73
2023/03/23 01:38:32;;;;;;;44.30;29.80;;;;;;;8.60;79.06;99354.77;104261;1255;98154;-72
2023/03/23 01:40:58;;;;;;;48.80;29.50;;;;;;;8.63;79.03;99356.08;103444;1253;107644;-72
2023/03/23 01:43:23;;;;;;;;;;;;;;;8.65;78.94;99344.54;103319;1250;138550;-72
2023/03/23 01:45:49;;;;;;;45.70;28.40;;;;;;;8.66;78.90;99345.19;103370;1255;111066;-72
2023/03/23 01:48:21;;;;;;;47.10;30.30;;;;;;;8.67;78.85;99340.12;103361;1253;139092;-72
2023/03/23 01:50:54;;;;;;;46.80;28.80;;;;;;;8.69;78.86;99336.95;103448;1253;98347;-72
2023/03/23 01:53:23;;;;;;;45.20;29.00;;;;;;;8.69;78.81;99334.50;103464;1256;107426;-72
2023/03/23 01:55:52;;;;;;;45.20;29.00;;;;;;;8.70;78.65;99335.68;103366;1250;138141;-72
2023/03/23 01:58:33;;;;;;;43.60;28.20;;;;;;;8.70;78.69;99336.03;103456;1255;110058;-71
2023/03/23 02:01:06;;;;;;;41.60;28.20;;;;;;;8.70;78.62;99329.60;103370;1251;138271;-73
2023/03/23 02:03:36;;;;;;;41.50;27.40;;;;;;;8.70;78.58;99326.66;103480;1253;97674;-71
2023/03/23 02:06:03;;;;;;;43.90;28.80;;;;;;;8.70;78.61;99323.54;103312;1251;138819;-72
2023/03/23 02:08:52;;;;;;;45.80;27.60;;;;;;;8.70;78.53;99322.50;103370;1253;97756;-72
2023/03/23 02:11:21;;;;;;;41.70;27.00;;;;;;;8.70;78.61;99318.86;104891;1248;111324;-72
2023/03/23 02:13:48;;;;;;;39.40;26.80;;;;;;;8.69;78.55;99313.34;103880;1250;138212;-72
2023/03/23 02:16:22;;;;;;;43.80;27.00;;;;;;;8.71;78.68;99309.80;103391;1250;97729;-72
2023/03/23 02:19:04;;;;;;;45.30;26.70;;;;;;;8.73;78.57;99310.08;103275;1253;139836;-72
2023/03/23 02:21:59;;;;;;;40.90;25.80;;;;;;;8.74;78.58;99309.17;103323;1257;97727;-73
2023/03/23 02:25:01;;;;;;;42.60;25.90;;;;;;;8.77;78.62;99307.82;103362;1253;138146;-73
2023/03/23 02:28:12;;;;;;;42.30;25.90;;;;;;;8.80;78.69;99308.77;103340;1254;107743;-72
2023/03/23 02:30:50;;;;;;;38.10;24.60;;;;;;;8.84;78.65;99304.96;103350;1255;138401;-73
2023/03/23 02:33:37;;;;;;;36.80;23.20;;;;;;;8.88;78.78;99304.96;103488;1251;109059;-73
2023/03/23 02:36:11;;;;;;;39.00;25.00;;;;;;;8.93;78.63;99303.74;103406;1251;139260;-73
2023/03/23 02:38:44;;;;;;;38.20;25.50;;;;;;;8.95;78.37;99294.45;103460;1253;110872;-73
2023/03/23 02:41:12;;;;;;;37.80;24.40;;;;;;;8.96;78.25;99296.66;103313;1251;108224;-73
2023/03/23 02:43:42;;;;;;;35.00;23.00;;;;;;;8.96;78.15;99302.73;103512;1256;138725;-74
2023/03/23 02:46:11;;;;;;;40.10;23.60;;;;;;;8.97;78.24;99295.41;103486;1250;107636;-73
2023/03/23 02:48:40;;;;;;;32.70;22.20;;;;;;;8.99;78.26;99301.08;103378;1250;138964;-73
2023/03/23 02:51:11;;;;;;;36.90;23.10;;;;;;;9.01;78.22;99300.98;103454;1251;110830;-74
2023/03/23 02:53:41;;;;;;;34.40;22.20;;;;;;;9.05;78.07;99305.67;103326;1255;139322;-73
2023/03/23 02:56:11;;;;;;;34.50;21.50;;;;;;;9.07;78.02;99307.99;103475;1250;98368;-72
2023/03/23 02:58:38;;;;;;;34.50;22.60;;;;;;;9.09;77.98;99304.95;103473;1250;109290;-72
2023/03/23 03:01:37;;;;;;;37.10;22.20;;;;;;;9.12;77.92;99305.39;103377;1254;139048;-73
2023/03/23 03:04:09;;;;;;;34.10;22.70;;;;;;;9.14;77.93;99306.00;103425;1256;110557;-73
2023/03/23 03:06:43;;;;;;;32.90;22.20;;;;;;;9.15;77.79;99304.73;103344;1256;138842;-73
2023/03/23 03:09:16;;;;;;;34.70;21.50;;;;;;;9.16;77.74;99307.48;103480;1251;97794;-72
2023/03/23 03:11:48;;;;;;;35.20;21.70;;;;;;;9.18;77.70;99298.20;103339;1253;138562;-73
2023/03/23 03:14:25;;;;;;;30.70;20.70;;;;;;;9.21;77.74;99299.13;103535;1251;97826;-73
2023/03/23 03:16:58;;;;;;;30.40;21.60;;;;;;;9.24;77.59;99300.73;103492;1251;111340;-73
2023/03/23 03:19:39;;;;;;;31.20;21.60;;;;;;;9.25;77.62;99303.09;103332;1250;138748;-73
2023/03/23 03:22:07;;;;;;;33.10;20.30;;;;;;;9.27;77.51;99297.12;103500;1249;98176;-73
2023/03/23 03:24:40;;;;;;;35.10;21.40;;;;;;;9.29;77.33;99300.50;103365;1253;138555;-73
2023/03/23 03:27:11;;;;;;;36.60;21.90;;;;;;;9.30;77.24;99303.42;104539;1251;96144;-73
2023/03/23 03:29:58;;;;;;;31.80;20.90;;;;;;;9.31;77.22;99301.64;103266;1253;138838;-73
2023/03/23 03:32:30;;;;;;;34.90;21.20;;;;;;;9.33;77.16;99305.71;103453;1253;108492;-73
2023/03/23 03:34:57;;;;;;;34.50;21.00;;;;;;;9.34;77.02;99311.56;104371;1256;95715;-73
2023/03/23 03:37:22;;;;;;;;;;;;;;;9.35;76.90;99310.85;103677;1254;138800;-73
2023/03/23 03:39:49;;;;;;;29.80;20.20;;;;;;;9.35;76.88;99313.80;103412;1251;97781;-73
2023/03/23 03:42:15;;;;;;;31.60;20.50;;;;;;;9.36;76.87;99317.41;103346;1257;138650;-73
2023/03/23 03:44:39;;;;;;;;;;;;;;;9.35;76.79;99315.90;104003;1254;106817;-72
2023/03/23 03:47:06;;;;;;;33.90;20.70;;;;;;;9.34;76.74;99316.08;103438;1254;97890;-72
2023/03/23 03:49:32;;;;;;;31.30;21.10;;;;;;;9.33;76.74;99312.13;103281;1254;138638;-73
2023/03/23 03:51:58;;;;;;;30.70;20.50;;;;;;;9.31;76.70;99307.85;103510;1251;97775;-72
2023/03/23 03:54:33;;;;;;;31.70;20.80;;;;;;;9.31;76.60;99304.57;103315;1251;138462;-73
2023/03/23 03:56:59;;;;;;;29.80;20.40;;;;;;;9.29;76.66;99301.35;103454;1257;106766;-73
2023/03/23 03:59:48;;;;;;;34.00;20.50;;;;;;;9.28;76.68;99296.58;103085;1261;138647;-72
2023/03/23 04:02:40;;;;;;;33.40;21.40;;;;;;;9.26;76.69;99289.39;103502;1250;105634;-72
2023/03/23 04:05:08;;;;;;;30.10;20.60;;;;;;;9.23;76.58;99285.48;103784;1266;97842;-73
2023/03/23 04:07:37;;;;;;;27.80;19.70;;;;;;;9.22;76.65;99287.77;103290;1251;138954;-73
2023/03/23 04:10:05;;;;;;;30.30;19.50;;;;;;;9.21;76.70;99288.70;103807;1256;108821;-72
2023/03/23 04:12:42;;;;;;;32.90;20.50;;;;;;;9.20;76.67;99290.67;103451;1253;138871;-74
2023/03/23 04:15:38;;;;;;;29.60;20.10;;;;;;;9.18;76.60;99290.05;103330;1251;106889;-74
2023/03/23 04:18:16;;;;;;;31.30;20.40;;;;;;;9.16;76.60;99297.76;103348;1256;139695;-74
2023/03/23 04:20:44;;;;;;;35.30;20.60;;;;;;;9.15;76.61;99294.66;103453;1256;111646;-73
2023/03/23 04:23:11;;;;;;;32.70;20.90;;;;;;;9.14;76.59;99294.20;103341;1251;109100;-73
2023/03/23 04:25:39;;;;;;;30.90;20.00;;;;;;;9.13;76.55;99294.40;103494;1248;138542;-73
2023/03/23 04:28:06;;;;;;;32.10;20.20;;;;;;;9.13;76.58;99288.00;104010;1252;108014;-73
2023/03/23 04:30:37;;;;;;;32.30;19.30;;;;;;;9.11;76.58;99288.77;104729;1250;139221;-74
2023/03/23 04:33:06;;;;;;;30.70;19.30;;;;;;;9.09;76.63;99292.52;105041;1250;110353;-74
2023/03/23 04:35:31;;;;;;;;;;;;;;;9.06;76.59;99292.95;103765;1251;107133;-74
2023/03/23 04:38:07;;;;;;;30.00;18.20;;;;;;;9.03;76.76;99285.27;103471;1256;97771;-73
2023/03/23 04:40:36;;;;;;;30.00;19.70;;;;;;;9.02;76.64;99284.48;103412;1251;107137;-73
2023/03/23 04:43:12;;;;;;;29.40;18.90;;;;;;;9.01;76.66;99288.14;103330;1257;138663;-73
2023/03/23 04:46:02;;;;;;;27.70;19.00;;;;;;;9.00;76.71;99289.73;103467;1251;110165;-74
2023/03/23 04:48:33;;;;;;;30.40;19.80;;;;;;;9.01;76.63;99289.55;103337;1253;138939;-73
2023/03/23 04:51:26;;;;;;;28.50;19.20;;;;;;;9.01;76.67;99281.38;103438;1251;97762;-74
2023/03/23 04:53:53;;;;;;;29.50;18.80;;;;;;;9.03;76.68;99277.64;103447;1252;138560;-73
2023/03/23 04:56:20;;;;;;;29.20;19.00;;;;;;;9.05;76.61;99276.00;103526;1254;97786;-72
2023/03/23 04:58:57;;;;;;;27.90;19.30;;;;;;;9.07;76.45;99277.11;103450;1251;110359;-73
2023/03/23 05:01:22;;;;;;;30.10;19.70;;;;;;;9.10;76.47;99276.83;103299;1250;138568;-73
2023/03/23 05:04:16;;;;;;;30.20;18.30;;;;;;;9.15;76.36;99275.95;103480;1253;97877;-73
2023/03/23 05:06:46;;;;;;;31.20;19.10;;;;;;;9.18;76.25;99282.09;103391;1254;138282;-73
2023/03/23 05:09:19;;;;;;;26.00;17.10;;;;;;;9.23;76.20;99281.88;103447;1256;97757;-73
2023/03/23 05:11:47;;;;;;;27.50;17.50;;;;;;;9.26;76.13;99275.65;103295;1250;138729;-72
2023/03/23 05:14:13;;;;;;;31.30;17.80;;;;;;;9.28;75.93;99273.64;103475;1251;107201;-72
2023/03/23 05:16:39;;;;;;;27.60;17.80;;;;;;;9.32;75.89;99270.86;103388;1251;97704;-75
2023/03/23 05:19:07;;;;;;;26.50;18.20;;;;;;;9.36;75.81;99270.91;103231;1257;138481;-72
2023/03/23 05:21:35;;;;;;;27.00;17.90;;;;;;;9.39;75.69;99272.69;103434;1257;97806;-73
2023/03/23 05:24:01;;;;;;;33.90;18.40;;;;;;;9.41;75.57;99275.55;103341;1254;138654;-73
2023/03/23 05:26:28;;;;;;;;;;;;;;;9.45;75.48;99275.21;103406;1254;107690;-74
2023/03/23 05:28:56;;;;;;;28.90;16.30;;;;;;;9.49;75.45;99266.00;103506;1251;98315;-70
2023/03/23 05:31:32;;;;;;;24.70;17.20;;;;;;;9.55;75.31;99266.61;103195;1251;138529;-73
2023/03/23 05:33:58;;;;;;;28.30;18.00;;;;;;;9.63;75.20;99274.04;103412;1257;97772;-74
2023/03/23 05:36:32;;;;;;;28.00;17.50;;;;;;;9.65;74.91;99276.19;103400;1251;138969;-75
2023/03/23 05:39:34;;;;;;;26.70;17.60;;;;;;;9.67;74.89;99279.39;103534;1249;108003;-72
2023/03/23 05:42:17;;;;;;;27.00;16.90;;;;;;;9.69;74.82;99280.05;103308;1251;138828;-73
2023/03/23 05:44:51;;;;;;;28.70;17.20;;;;;;;9.71;74.79;99280.50;103309;1251;106690;-73
2023/03/23 05:47:19;;;;;;;28.70;17.40;;;;;;;9.76;74.76;99280.98;103439;1253;97864;-73
2023/03/23 05:49:50;;;;;;;23.20;16.20;;;;;;;9.79;74.61;99279.77;103212;1251;138357;-75
2023/03/23 05:52:17;;;;;;;34.10;17.50;;;;;;;9.80;74.52;99278.38;103384;1251;109128;-73
2023/03/23 05:54:44;;;;;;;28.70;16.70;;;;;;;9.80;74.39;99281.31;103348;1257;138677;-72
2023/03/23 05:57:09;;;;;;;;;;;;;;;9.81;74.40;99283.66;103427;1254;107805;-72
2023/03/23 05:59:46;;;;;;;25.10;17.80;;;;;;;9.84;74.40;99287.39;103290;1249;125256;-71
2023/03/23 06:02:17;;;;;;;27.80;16.80;;;;;;;9.89;74.43;99287.48;103343;1251;111288;-71
2023/03/23 06:04:44;;;;;;;24.90;15.90;;;;;;;9.96;74.29;99288.56;103447;1254;107713;-74
2023/03/23 06:07:24;;;;;;;31.60;16.90;;;;;;;10.04;74.11;99289.23;103225;1257;138649;-73
2023/03/23 06:10:03;;;;;;;25.40;17.20;;;;;;;10.14;74.05;99294.16;103470;1251;106909;-72
2023/03/23 06:12:36;;;;;;;26.00;17.60;;;;;;;10.26;73.82;99286.52;103187;1251;138929;-76
2023/03/23 06:15:24;;;;;;;28.80;16.80;;;;;;;10.40;73.64;99287.11;103465;1251;111019;-75
2023/03/23 06:18:02;;;;;;;28.00;17.00;;;;;;;10.52;73.34;99284.98;103296;1251;142854;-74
2023/03/23 06:20:43;;;;;;;25.70;16.40;;;;;;;10.66;73.00;99283.64;103342;1250;97817;-74
2023/03/23 06:23:31;;;;;;;29.10;16.20;;;;;;;10.81;72.70;99283.91;103337;1255;108214;-74
2023/03/23 06:26:01;;;;;;;24.70;15.50;;;;;;;11.01;72.33;99278.08;103505;1253;97924;-74
2023/03/23 06:28:28;;;;;;;25.10;15.30;;;;;;;11.27;72.03;99283.59;103391;1255;111315;-75
2023/03/23 06:30:55;;;;;;;28.10;15.10;;;;;;;11.51;71.42;99281.83;103364;1250;138755;-75
2023/03/23 06:33:23;;;;;;;20.40;13.70;;;;;;;11.72;70.80;99286.84;103361;1250;97801;-74
2023/03/23 06:36:09;;;;;;;26.20;15.70;;;;;;;12.03;70.50;99297.05;103286;1251;138770;-75
2023/03/23 06:38:47;;;;;;;25.40;14.80;;;;;;;12.38;70.01;99295.17;103385;1251;97739;-70
2023/03/23 06:41:16;;;;;;;23.70;14.20;;;;;;;12.58;69.33;99292.14;103488;1253;111254;-65
2023/03/23 06:43:43;;;;;;;23.20;13.00;;;;;;;12.71;68.61;99284.95;103419;1250;138837;-67
2023/03/23 06:46:17;;;;;;;23.80;14.00;;;;;;;12.89;68.50;99281.68;103762;1251;97659;-69
2023/03/23 06:48:52;;;;;;;28.10;13.40;;;;;;;13.11;67.85;99279.23;103470;1253;138667;-67
2023/03/23 06:51:21;;;;;;;21.40;13.80;;;;;;;13.30;67.38;99281.59;103465;1251;97851;-67
2023/03/23 06:53:50;;;;;;;23.30;13.30;;;;;;;13.56;67.23;99278.13;103399;1253;139408;-67
2023/03/23 06:56:16;;;;;;;22.80;12.80;;;;;;;13.94;66.66;99281.44;103491;1250;106277;-67
2023/03/23 06:58:45;;;;;;;23.10;13.50;;;;;;;14.27;65.65;99283.56;103590;1253;97783;-68
2023/03/23 07:01:12;;;;;;;20.10;12.90;;;;;;;14.62;64.29;99279.25;103448;1253;137926;-80
2023/03/23 07:03:41;;;;;;;25.80;13.90;;;;;;;14.90;63.26;99275.72;103517;1253;97906;-76
2023/03/23 07:06:09;;;;;;;22.00;13.30;;;;;;;15.08;62.54;99279.75;103381;1251;138141;-78
2023/03/23 07:08:40;;;;;;;20.50;11.90;;;;;;;15.35;62.29;99286.20;104712;1251;108764;-79
2023/03/23 07:11:11;;;;;;;20.10;11.30;;;;;;;15.96;61.00;99283.29;103948;1251;97816;-78
2023/03/23 07:13:37;;;;;;;16.10;11.00;;;;;;;17.34;59.93;99275.39;103284;1251;138178;-78
2023/03/23 07:16:05;;;;;;;20.00;11.60;;;;;;;18.10;56.87;99274.94;103452;1252;97813;-75
2023/03/23 07:18:32;;;;;;;14.50;11.30;;;;;;;18.48;55.44;99275.10;103349;1256;138251;-76
2023/03/23 07:20:56;;;;;;;;;;;;;;;18.48;54.97;99276.48;103516;1250;107939;-75
2023/03/23 07:23:26;;;;;;;18.10;10.40;;;;;;;18.21;54.33;99284.98;103497;1254;98221;-75
2023/03/23 07:26:00;;;;;;;15.50;11.40;;;;;;;17.98;54.38;99284.17;103458;1251;107703;-75
2023/03/23 07:28:32;;;;;;;18.60;11.40;;;;;;;17.94;54.16;99280.48;103555;1249;97740;-75
2023/03/23 07:31:04;;;;;;;21.80;10.90;;;;;;;17.93;53.47;99283.50;103340;1254;138008;-76
2023/03/23 07:33:31;;;;;;;18.70;10.90;;;;;;;17.81;53.53;99286.27;103442;1253;107452;-75
2023/03/23 07:36:01;;;;;;;15.90;10.80;;;;;;;17.84;53.11;99285.61;103285;1253;138368;-77
2023/03/23 07:38:28;;;;;;;17.20;10.30;;;;;;;18.20;53.36;99286.16;103237;1254;107648;-77
2023/03/23 07:40:54;;;;;;;16.60;9.90;;;;;;;18.31;52.27;99288.48;103430;1251;97689;-76
2023/03/23 07:43:20;;;;;;;;;;;;;;;18.26;52.04;99292.17;103318;1251;138466;-75
2023/03/23 07:46:04;;;;;;;18.20;9.30;;;;;;;18.64;52.50;99292.64;103518;1250;108218;-77
2023/03/23 07:49:05;;;;;;;16.00;9.20;;;;;;;19.69;50.91;99285.41;103354;1251;138039;-78
2023/03/23 07:51:38;;;;;;;15.80;8.60;;;;;;;20.47;48.48;99279.36;103404;1250;108843;-74
2023/03/23 07:54:07;;;;;;;13.00;8.60;;;;;;;20.56;47.18;99270.83;103429;1253;138149;-75
2023/03/23 07:56:51;;;;;;;13.50;8.60;;;;;;;20.39;47.55;99277.20;103396;1253;111292;-75
2023/03/23 07:59:25;;;;;;;16.30;8.30;;;;;;;20.11;47.52;99278.94;103572;1250;107327;-75
2023/03/23 08:01:51;;;;;;;18.40;7.50;;;;;;;19.94;47.08;99279.01;103214;1250;138967;-85
2023/03/23 08:04:36;;;;;;;15.50;8.70;;;;;;;19.72;47.22;99279.00;103455;1251;107681;-82
2023/03/23 08:07:12;;;;;;;12.90;8.40;;;;;;;19.39;47.08;99276.98;103493;1251;138476;-80
2023/03/23 08:09:47;;;;;;;10.70;7.90;;;;;;;19.04;47.28;99273.59;103547;1251;111816;-85
2023/03/23 08:12:29;;;;;;;14.80;7.60;;;;;;;18.80;47.28;99281.73;103425;1250;137958;-85
2023/03/23 08:15:18;;;;;;;19.90;7.60;;;;;;;18.34;47.57;99282.75;103621;1250;98449;-81
2023/03/23 08:18:07;;;;;;;13.30;7.70;;;;;;;17.92;48.15;99275.98;103128;1250;138221;-83
2023/03/23 08:20:53;;;;;;;11.10;7.00;;;;;;;17.71;48.19;99270.09;103496;1254;97861;-85
2023/03/23 08:23:29;;;;;;;16.40;7.40;;;;;;;17.71;48.78;99267.82;103505;1256;111273;-80
2023/03/23 08:26:14;;;;;;;15.20;7.20;;;;;;;17.55;48.72;99264.41;103505;1253;107095;-81
2023/03/23 08:28:50;;;;;;;10.00;7.20;;;;;;;17.32;49.00;99261.60;103621;1250;98409;-82
2023/03/23 08:31:37;;;;;;;15.90;7.50;;;;;;;17.17;49.89;99249.08;103430;1250;137890;-83
2023/03/23 08:34:10;;;;;;;14.10;8.60;;;;;;;17.09;49.84;99241.09;103495;1256;97880;-81
2023/03/23 08:37:02;;;;;;;14.80;7.90;;;;;;;17.00;49.72;99240.34;103508;1250;137843;-82
2023/03/23 08:39:51;;;;;;;11.70;7.20;;;;;;;16.98;50.02;99246.30;103588;1253;107714;-78
2023/03/23 08:42:32;;;;;;;12.70;7.60;;;;;;;17.14;49.98;99246.48;103378;1250;138078;-77
2023/03/23 08:45:15;;;;;;;12.40;6.90;;;;;;;17.29;49.51;99247.83;103575;1249;107834;-73
2023/03/23 08:48:02;;;;;;;10.60;7.10;;;;;;;17.29;49.01;99248.35;103359;1253;138165;-82
2023/03/23 08:50:30;;;;;;;11.80;6.80;;;;;;;17.30;49.72;99249.54;103605;1250;110683;-85
2023/03/23 08:53:13;;;;;;;12.90;6.20;;;;;;;17.27;49.04;99252.38;103881;1256;105869;-84
2023/03/23 08:56:08;;;;;;;12.30;6.60;;;;;;;17.00;49.58;99242.10;103375;1253;138154;-85
2023/03/23 08:58:54;;;;;;;14.90;5.90;;;;;;;16.83;49.68;99245.80;103538;1249;107779;-84
2023/03/23 09:01:39;;;;;;;12.10;7.10;;;;;;;16.74;50.08;99244.05;103352;1250;138327;-83
2023/03/23 09:04:28;;;;;;;12.50;6.60;;;;;;;16.62;49.61;99254.55;103433;1250;112739;-79
2023/03/23 09:07:17;;;;;;;12.10;5.60;;;;;;;16.44;50.23;99256.17;103336;1253;139217;-76
2023/03/23 09:09:43;;;;;;;10.40;5.80;;;;;;;16.39;50.13;99260.29;103585;1253;98554;-78
2023/03/23 09:12:10;;;;;;;10.10;5.80;;;;;;;16.28;50.33;99261.16;103372;1253;138538;-79
2023/03/23 09:14:37;;;;;;;9.30;5.90;;;;;;;16.24;50.48;99259.90;103507;1250;97685;-79
2023/03/23 09:17:03;;;;;;;9.10;4.70;;;;;;;16.19;50.49;99257.84;103627;1248;110703;-78
2023/03/23 09:19:28;;;;;;;;;;;;;;;16.11;50.55;99262.09;103391;1251;137869;-79
2023/03/23 09:21:55;;;;;;;14.90;5.30;;;;;;;16.01;50.46;99258.75;103509;1250;98102;-83
2023/03/23 09:24:19;;;;;;;;;;;;;;;15.87;50.29;99254.62;103410;1250;138152;-78
2023/03/23 09:26:46;;;;;;;9.80;5.60;;;;;;;15.76;50.79;99256.16;103482;1253;97759;-78
2023/03/23 09:29:12;;;;;;;7.80;5.00;;;;;;;15.72;50.71;99255.34;103427;1250;111130;-77
2023/03/23 09:31:39;;;;;;;9.30;5.10;;;;;;;15.72;51.13;99256.17;103410;1250;137711;-77
2023/03/23 09:34:06;;;;;;;9.00;5.10;;;;;;;15.75;50.86;99256.03;103551;1250;97771;-80
2023/03/23 09:36:32;;;;;;;8.40;5.10;;;;;;;15.77;50.60;99249.69;103463;1249;137602;-78
2023/03/23 09:38:57;;;;;;;;;;;;;;;15.84;50.57;99241.20;103539;1253;97787;-85
2023/03/23 09:41:48;;;;;;;8.90;4.50;;;;;;;15.85;50.24;99240.60;103652;1250;111934;-81
2023/03/23 09:44:23;;;;;;;9.30;4.70;;;;;;;15.87;50.52;99235.35;103475;1253;107688;-84
2023/03/23 09:46:59;;;;;;;7.10;4.60;;;;;;;15.96;50.42;99231.41;103526;1251;98258;-83
2023/03/23 09:49:30;;;;;;;7.30;4.40;;;;;;;16.11;50.16;99225.59;103350;1250;137572;-84
2023/03/23 09:52:00;;;;;;;9.00;4.60;;;;;;;16.33;50.05;99216.45;103584;1249;97810;-82
2023/03/23 09:54:30;;;;;;;14.00;4.70;;;;;;;16.65;50.05;99208.52;103461;1249;138729;-74
2023/03/23 09:56:58;;;;;;;10.80;4.90;;;;;;;17.08;49.95;99212.17;103542;1253;108965;-60
2023/03/23 09:59:30;;;;;;;6.90;4.10;;;;;;;17.49;48.53;99209.88;103613;1251;97668;-60
2023/03/23 10:02:00;;;;;;;6.70;3.90;;;;;;;17.92;47.57;99207.80;103475;1253;137571;-61
2023/03/23 10:04:40;;;;;;;7.50;3.80;;;;;;;18.45;45.17;99210.10;104176;1249;97782;-61
2023/03/23 10:07:14;;;;;;;8.60;3.00;;;;;;;19.06;44.60;99208.79;103387;1250;137948;-60
2023/03/23 10:09:41;;;;;;;5.30;3.40;;;;;;;19.67;43.57;99206.05;103709;1253;107517;-61
2023/03/23 10:12:20;;;;;;;6.00;3.50;;;;;;;20.25;43.26;99208.33;103447;1250;138228;-62
2023/03/23 10:15:05;;;;;;;6.60;3.70;;;;;;;20.80;42.89;99198.98;103520;1253;108352;-62
2023/03/23 10:17:37;;;;;;;8.40;3.10;;;;;;;21.40;41.87;99186.77;103477;1250;97766;-61
2023/03/23 10:20:20;;;;;;;4.90;3.00;;;;;;;21.94;40.45;99181.98;103386;1250;137744;-61
2023/03/23 10:22:53;;;;;;;4.40;3.00;;;;;;;22.53;39.08;99182.95;103527;1250;109055;-61
2023/03/23 10:25:24;;;;;;;4.30;2.90;;;;;;;22.72;37.54;99178.21;103877;1250;137917;-62
2023/03/23 10:27:58;;;;;;;11.30;3.50;;;;;;;23.02;38.24;99167.63;103556;1250;106972;-61
2023/03/23 10:30:30;;;;;;;4.70;3.20;;;;;;;23.53;37.87;99169.05;103455;1250;138203;-61
2023/03/23 10:32:59;;;;;;;6.90;3.40;;;;;;;23.85;37.81;99173.09;103949;1250;111252;-60
2023/03/23 10:35:30;;;;;;;7.30;3.60;;;;;;;24.05;37.18;99174.42;103574;1253;107420;-60
2023/03/23 10:38:01;;;;;;;8.50;3.60;;;;;;;24.05;36.02;99174.06;103524;1252;137850;-60
2023/03/23 10:40:32;;;;;;;7.50;3.70;;;;;;;23.69;33.93;99174.77;103492;1250;108887;-61
2023/03/23 10:42:59;;;;;;;9.40;3.60;;;;;;;23.04;34.76;99175.79;104264;1253;137855;-61
2023/03/23 10:45:29;;;;;;;10.30;3.50;;;;;;;22.63;35.89;99168.47;103580;1253;111383;-61
2023/03/23 10:48:06;;;;;;;5.60;3.60;;;;;;;22.47;36.53;99177.67;103848;1250;139633;-62
2023/03/23 10:50:36;;;;;;;9.30;5.10;;;;;;;22.54;37.05;99169.55;103607;1249;97826;-61
2023/03/23 10:53:07;;;;;;;7.80;4.30;;;;;;;22.67;37.77;99177.28;103500;1253;108687;-60
2023/03/23 10:55:43;;;;;;;5.40;3.70;;;;;;;22.70;36.75;99180.40;103420;1253;138066;-60
2023/03/23 10:58:12;;;;;;;9.70;4.40;;;;;;;22.54;36.65;99176.79;103939;1249;111507;-69
2023/03/23 11:00:44;;;;;;;6.20;4.00;;;;;;;22.44;36.81;99171.11;103315;1253;137997;-71
2023/03/23 11:03:41;;;;;;;8.60;3.80;;;;;;;22.34;37.05;99169.42;103487;1249;97889;-69
2023/03/23 11:06:08;;;;;;;;;;;;;;;22.28;36.80;99170.50;103449;1250;137822;-71
2023/03/23 11:08:38;;;;;;;7.20;3.00;;;;;;;22.14;35.95;99166.83;103453;1249;97856;-71
2023/03/23 11:11:16;;;;;;;4.70;2.90;;;;;;;21.91;35.84;99167.18;103425;1255;111621;-72
2023/03/23 11:13:48;;;;;;;6.80;3.00;;;;;;;21.70;36.35;99163.06;103360;1249;138022;-72
2023/03/23 11:16:25;;;;;;;4.70;3.10;;;;;;;21.49;35.92;99157.41;103536;1250;97792;-71
2023/03/23 11:18:52;;;;;;;6.50;3.10;;;;;;;21.24;36.68;99159.10;103432;1250;137732;-72
2023/03/23 11:21:18;;;;;;;8.60;2.90;;;;;;;21.06;36.45;99151.58;103557;1250;97905;-72
2023/03/23 11:23:50;;;;;;;5.80;2.90;;;;;;;20.87;36.38;99153.35;103458;1253;111020;-72
2023/03/23 11:26:21;;;;;;;7.30;2.90;;;;;;;20.87;36.79;99146.65;103544;1250;106963;-69
2023/03/23 11:28:52;;;;;;;7.40;3.30;;;;;;;20.85;36.61;99140.65;103542;1250;98184;-69
2023/03/23 11:31:22;;;;;;;6.20;2.90;;;;;;;21.03;37.10;99144.55;103293;1250;139190;-70
2023/03/23 11:33:54;;;;;;;3.90;2.60;;;;;;;21.32;37.20;99141.70;103523;1250;97652;-69
2023/03/23 11:36:23;;;;;;;5.20;2.90;;;;;;;21.57;35.16;99136.20;103396;1253;138693;-68
2023/03/23 11:38:55;;;;;;;7.50;2.70;;;;;;;21.56;36.31;99131.17;103439;1253;109213;-69
2023/03/23 11:41:23;;;;;;;8.50;2.90;;;;;;;21.67;36.41;99125.27;103593;1249;98264;-70